Ballouville, Connecticut
Current Conditions -  °F | °C
As of 11:02 AM on Sunday 21 Dec 2014 (Local Time) from KIJD Reporting Station
Light Snow Light Snow  
Wind Chill: 27°   Ceiling: 1100
Heat Index: 33°   Visibility: 1.5mi
Dew Point: 30°   Wind: 7mph
Humidity: 89%   Direction: 20°NNE
Pressure: 30.29"   Gusts: NA
Location:  41.88°N, 71.86°W
Report Text: KIJD 211602Z AUTO 02006KT 1 1/2SM -SN BR SCT008 OVC011 01/M01 A3029 RMK AO2 P0000 T00061011
Loading
Personal Weather Stations






























Interactive Weather Map New forecast layout! Learn more

10-Day Weather Forecast

Advertisements
Track Severe Weather on mobile